Time;durP1;ratioP1;P1;durP2;ratioP2;P2;SDS_P1;SDS_P2;PMS_P1;PMS_P2;Temp;Humidity;BMP_temperature;BMP_pressure;BME280_temperature;BME280_humidity;BME280_pressure;Samples;Min_cycle;Max_cycle;Signal;HPM_P1;HPM_P2
2022/05/20 00:23:46;;;;;;;5.20;3.67;;;18.30;1.00;;;;;;6108841;23;20172;-86
2022/05/20 00:26:26;;;;;;;5.60;3.80;;;18.10;1.00;;;;;;6119052;23;20189;-84
2022/05/20 01:08:48;;;;;;;4.35;3.30;;;17.40;1.00;;;;;;5967021;24;20203;-85
2022/05/20 01:11:20;;;;;;;7.20;3.30;;;17.30;1.00;;;;;;6220287;23;20247;-84
2022/05/20 01:13:52;;;;;;;5.90;3.50;;;17.30;1.00;;;;;;6316808;22;20164;-83
2022/05/20 01:16:56;;;;;;;6.13;3.38;;;17.30;1.00;;;;;;6324572;22;20238;-84
2022/05/20 01:29:44;;;;;;;5.40;3.65;;;17.40;1.00;;;;;;6130439;23;20195;-84
2022/05/20 02:29:34;;;;;;;7.07;3.45;;;17.30;1.00;;;;;;5967414;24;20271;-84
2022/05/20 02:32:45;;;;;;;4.20;3.50;;;17.20;1.00;;;;;;6097669;23;20169;-84
2022/05/20 02:45:42;;;;;;;;;;;;;;;;;;;;;
2022/05/20 03:05:12;;;;;;;4.20;3.40;;;16.70;1.00;;;;;;6129161;23;20175;-86
2022/05/20 03:07:40;;;;;;;4.40;3.50;;;16.70;1.00;;;;;;6185929;23;20173;-82
2022/05/20 03:10:07;;;;;;;4.17;3.47;;;16.70;1.00;;;;;;6189515;23;20654;-83
2022/05/20 03:12:41;;;;;;;6.10;3.70;;;16.70;1.00;;;;;;6248088;22;20197;-87
2022/05/20 03:15:12;;;;;;;3.70;3.30;;;16.70;29.20;;;;;;6315947;22;20669;-86
2022/05/20 03:17:41;;;;;;;4.80;3.70;;;16.70;99.90;;;;;;6313793;22;20143;-85
2022/05/20 03:20:10;;;;;;;6.00;3.50;;;16.70;99.90;;;;;;6319577;22;20169;-85
2022/05/20 03:22:37;;;;;;;4.93;3.80;;;16.70;99.90;;;;;;6313078;22;20166;-83
2022/05/20 03:25:20;;;;;;;5.93;3.90;;;16.80;99.90;;;;;;6313050;22;20220;-88
2022/05/20 03:27:48;;;;;;;5.30;3.40;;;16.80;99.90;;;;;;6319197;22;20214;-85
2022/05/20 03:30:15;;;;;;;5.13;4.23;;;16.70;99.90;;;;;;6313435;22;20213;-84
2022/05/20 03:32:43;;;;;;;4.53;3.67;;;16.70;99.90;;;;;;6306295;22;20198;-82
2022/05/20 03:35:11;;;;;;;7.67;4.00;;;16.80;99.90;;;;;;6308463;22;20214;-82
2022/05/20 03:37:38;;;;;;;5.50;3.90;;;16.70;99.90;;;;;;6305611;22;20165;-82
2022/05/20 03:40:06;;;;;;;6.23;3.93;;;16.70;99.90;;;;;;6306686;22;20168;-82
2022/05/20 03:42:33;;;;;;;5.13;3.93;;;16.70;99.90;;;;;;6309497;22;20170;-82
2022/05/20 03:45:00;;;;;;;4.37;3.87;;;16.70;99.90;;;;;;6310228;22;20224;-82
2022/05/20 03:47:28;;;;;;;4.00;3.60;;;16.70;99.90;;;;;;6306497;22;20165;-82
2022/05/20 03:49:56;;;;;;;5.27;4.00;;;16.70;99.90;;;;;;6308190;22;20189;-84
2022/05/20 03:52:23;;;;;;;4.15;3.75;;;16.80;1.00;;;;;;6308638;22;20283;-83
2022/05/20 03:54:50;;;;;;;4.45;3.42;;;17.40;1.00;;;;;;6311265;22;20166;-83
2022/05/20 03:57:17;;;;;;;3.95;3.55;;;18.30;1.00;;;;;;6307104;22;20163;-82
2022/05/20 03:59:44;;;;;;;4.55;3.38;;;19.30;1.00;;;;;;6314060;22;20186;-88
2022/05/20 04:02:17;;;;;;;117.28;75.47;;;20.30;99.90;;;;;;6308521;22;20376;-83
2022/05/20 04:04:46;;;;;;;4.70;3.67;;;21.30;99.90;;;;;;6317072;22;20573;-84
2022/05/20 04:07:17;;;;;;;3.30;3.00;;;22.20;25.00;;;;;;6315732;22;20166;-83
2022/05/20 04:09:45;;;;;;;5.82;2.80;;;22.90;1.00;;;;;;6313428;22;20015;-85
2022/05/20 04:12:21;;;;;;;5.15;2.90;;;23.70;1.00;;;;;;6310877;22;20202;-83
2022/05/20 04:14:48;;;;;;;;;;;24.40;1.00;;;;;;6310365;22;20090;-89
2022/05/20 04:17:14;;;;;;;;;;;25.00;1.00;;;;;;6315640;22;20344;-84
2022/05/20 04:19:41;;;;;;;;;;;25.60;1.00;;;;;;6313229;22;20178;-85
2022/05/20 04:22:10;;;;;;;6.60;2.90;;;26.20;1.00;;;;;;6320397;22;19911;-89
2022/05/20 04:24:38;;;;;;;;;;;26.90;1.00;;;;;;6311436;22;20101;-84
2022/05/20 04:27:05;;;;;;;4.47;3.20;;;27.50;1.00;;;;;;6312216;22;20176;-84
2022/05/20 04:29:38;;;;;;;65.90;32.10;;;28.00;1.00;;;;;;6313712;22;20205;-89
2022/05/20 04:32:05;;;;;;;154.20;56.50;;;28.50;1.00;;;;;;6309111;22;20189;-85
2022/05/20 04:34:33;;;;;;;28.05;14.63;;;28.90;1.00;;;;;;6312513;22;20468;-83
2022/05/20 04:37:00;;;;;;;37.05;18.80;;;29.20;1.00;;;;;;6314872;22;20171;-85
2022/05/20 04:39:33;;;;;;;51.35;22.63;;;29.50;1.00;;;;;;6312470;22;20167;-86
2022/05/20 04:47:32;;;;;;;103.38;55.17;;;28.40;1.00;;;;;;6317840;22;20192;-83
2022/05/20 04:49:59;;;;;;;121.70;64.43;;;27.20;1.00;;;;;;6316583;22;20168;-84
2022/05/20 04:52:27;;;;;;;100.55;57.03;;;26.20;1.00;;;;;;6311424;22;20164;-84
2022/05/20 04:54:53;;;;;;;44.05;30.15;;;25.20;1.00;;;;;;6314085;22;20151;-83
2022/05/20 04:57:33;;;;;;;42.60;25.45;;;24.50;1.00;;;;;;6310722;22;20190;-82
2022/05/20 05:00:05;;;;;;;36.10;24.70;;;23.80;1.00;;;;;;6313619;22;20509;-82
2022/05/20 05:02:33;;;;;;;22.98;13.40;;;23.20;1.00;;;;;;6307440;22;20666;-82
2022/05/20 05:05:00;;;;;;;17.73;13.77;;;22.70;1.00;;;;;;6313573;22;20118;-82
2022/05/20 05:07:40;;;;;;;20.98;13.32;;;22.30;1.00;;;;;;6319886;22;20167;-85
2022/05/20 05:10:14;;;;;;;14.20;12.07;;;21.80;1.00;;;;;;6313398;22;20187;-87
2022/05/20 05:12:43;;;;;;;16.45;9.63;;;21.50;1.00;;;;;;6318105;22;20208;-81
2022/05/20 05:15:12;;;;;;;10.63;8.40;;;21.10;1.00;;;;;;6311735;22;20163;-85
2022/05/20 05:20:27;;;;;;;9.95;8.77;;;20.70;96.00;;;;;;6313497;22;20462;-83
2022/05/20 05:22:57;;;;;;;8.82;7.90;;;20.50;99.90;;;;;;6313793;22;20166;-89
2022/05/20 05:25:32;;;;;;;14.40;9.38;;;20.50;99.90;;;;;;6314939;22;20163;-85
2022/05/20 05:28:01;;;;;;;16.77;10.70;;;20.70;99.90;;;;;;6308886;22;20178;-84
2022/05/20 05:30:49;;;;;;;13.23;8.80;;;21.10;99.90;;;;;;6313508;22;20179;-86
2022/05/20 05:33:26;;;;;;;10.77;9.20;;;21.30;99.90;;;;;;6314270;22;20215;-85
2022/05/20 05:35:53;;;;;;;9.88;7.63;;;21.30;99.90;;;;;;6312675;22;20139;-83
2022/05/20 05:38:20;;;;;;;11.90;8.75;;;21.20;99.90;;;;;;6314256;22;20228;-84
2022/05/20 05:40:48;;;;;;;12.50;9.93;;;21.20;99.90;;;;;;6313449;22;20167;-84
2022/05/20 05:43:30;;;;;;;11.05;8.68;;;21.20;99.90;;;;;;6313892;22;20194;-87
2022/05/20 05:45:57;;;;;;;14.63;10.30;;;21.50;99.90;;;;;;6314925;22;20597;-84
2022/05/20 05:48:24;;;;;;;9.63;8.63;;;21.80;99.90;;;;;;6314603;22;20244;-84
2022/05/20 05:50:57;;;;;;;10.52;8.43;;;22.20;99.90;;;;;;6316459;22;20232;-87
2022/05/20 05:53:26;;;;;;;13.48;10.98;;;22.90;99.90;;;;;;6315030;22;20151;-86
2022/05/20 05:55:58;;;;;;;27.73;10.27;;;23.70;99.90;;;;;;6314001;22;20136;-85
2022/05/20 05:58:31;;;;;;;13.30;10.55;;;24.40;1.00;;;;;;6314335;22;20161;-87
2022/05/20 06:01:03;;;;;;;11.02;8.38;;;24.90;1.00;;;;;;6311195;22;20220;-86
2022/05/20 06:03:35;;;;;;;8.15;7.07;;;25.10;1.00;;;;;;6313778;22;20157;-86
2022/05/20 06:06:15;;;;;;;9.80;8.15;;;25.30;1.00;;;;;;6315645;22;20208;-84
2022/05/20 06:08:42;;;;;;;13.45;11.30;;;25.30;1.00;;;;;;6313679;22;20159;-86
2022/05/20 06:11:09;;;;;;;10.60;7.60;;;25.10;1.00;;;;;;6313983;22;20178;-86
2022/05/20 06:13:40;;;;;;;10.80;9.70;;;24.70;1.00;;;;;;6313190;22;20163;-86
2022/05/20 06:16:10;;;;;;;10.52;9.02;;;24.40;1.00;;;;;;6317103;22;20171;-88
2022/05/20 06:18:44;;;;;;;8.85;7.82;;;23.90;1.00;;;;;;6312767;22;20163;-87
2022/05/20 06:21:20;;;;;;;10.00;8.50;;;23.60;1.00;;;;;;6314501;22;20209;-86
2022/05/20 06:23:53;;;;;;;;;;;23.30;1.00;;;;;;6311113;22;20493;-84
2022/05/20 06:26:20;;;;;;;8.40;7.20;;;23.10;1.00;;;;;;6311259;22;20154;-85
2022/05/20 06:28:48;;;;;;;8.68;6.43;;;22.90;1.00;;;;;;6309901;22;20167;-87
2022/05/20 06:31:16;;;;;;;12.95;7.43;;;22.70;1.00;;;;;;6313968;22;20182;-87
2022/05/20 06:33:43;;;;;;;8.75;6.43;;;22.50;1.00;;;;;;6308201;22;20163;-89
2022/05/20 06:41:39;;;;;;;7.40;6.70;;;22.20;1.00;;;;;;6313410;22;20189;-86
2022/05/20 06:44:09;;;;;;;8.35;7.10;;;22.00;1.00;;;;;;6313579;22;20159;-85
2022/05/20 06:46:37;;;;;;;9.85;7.60;;;21.90;22.30;;;;;;6315138;22;20164;-87
2022/05/20 06:49:07;;;;;;;8.10;6.60;;;21.90;53.10;;;;;;6314830;22;20163;-89
2022/05/20 06:51:36;;;;;;;7.35;6.65;;;21.90;92.30;;;;;;6308524;22;20236;-88
2022/05/20 06:54:07;;;;;;;8.80;6.97;;;21.90;98.70;;;;;;6310835;22;20166;-83
2022/05/20 06:56:34;;;;;;;10.30;7.25;;;21.90;99.90;;;;;;6318963;22;20208;-86
2022/05/20 06:59:03;;;;;;;7.63;6.45;;;22.00;99.90;;;;;;6316624;22;20162;-87
2022/05/20 07:01:35;;;;;;;10.43;6.80;;;22.30;99.90;;;;;;6313805;22;20199;-90
2022/05/20 07:04:01;;;;;;;7.07;6.32;;;22.50;99.90;;;;;;6311432;22;20143;-84
2022/05/20 07:06:41;;;;;;;7.20;6.13;;;22.50;83.40;;;;;;6310013;22;20522;-87
2022/05/20 07:09:08;;;;;;;7.00;6.30;;;22.70;52.10;;;;;;6312129;22;20167;-85
2022/05/20 07:11:35;;;;;;;11.10;9.30;;;22.70;31.80;;;;;;6310048;22;20191;-88
2022/05/20 07:14:02;;;;;;;7.47;6.60;;;22.90;53.00;;;;;;6315497;22;20181;-85
2022/05/20 07:16:32;;;;;;;7.30;6.60;;;23.10;38.70;;;;;;6313290;22;20248;-86
2022/05/20 07:18:59;;;;;;;6.68;5.97;;;23.40;29.30;;;;;;6311201;22;20462;-89
2022/05/20 07:21:26;;;;;;;6.05;5.45;;;23.90;5.00;;;;;;6310012;22;20159;-85
2022/05/20 07:23:53;;;;;;;8.48;5.18;;;24.60;10.50;;;;;;6311284;22;20167;-85
2022/05/20 07:26:20;;;;;;;;;;;26.00;5.90;;;;;;6314164;22;20015;-85
2022/05/20 07:28:47;;;;;;;6.83;3.90;;;27.60;1.00;;;;;;6307913;22;19915;-85
2022/05/20 07:31:17;;;;;;;5.50;4.47;;;28.70;1.00;;;;;;6311416;22;20171;-90
2022/05/20 07:33:45;;;;;;;7.97;3.65;;;29.60;1.00;;;;;;6312176;22;20242;-87
2022/05/20 07:36:12;;;;;;;3.72;3.20;;;30.90;1.00;;;;;;6309419;22;20163;-88
2022/05/20 07:38:39;;;;;;;4.65;3.28;;;31.90;1.00;;;;;;6310652;22;20167;-86
2022/05/20 07:41:06;;;;;;;6.63;4.78;;;32.00;1.00;;;;;;6314177;22;20186;-84
2022/05/20 07:43:33;;;;;;;5.72;3.50;;;31.30;1.00;;;;;;6312561;22;20162;-85
2022/05/20 07:46:05;;;;;;;3.80;3.40;;;30.40;1.00;;;;;;6313290;22;20163;-89
2022/05/20 07:48:32;;;;;;;5.78;3.20;;;29.40;1.00;;;;;;6309895;22;20157;-85
2022/05/20 07:51:03;;;;;;;3.88;3.42;;;28.70;1.00;;;;;;6316541;22;20488;-88
2022/05/20 07:53:35;;;;;;;;;;;28.10;1.00;;;;;;6313457;22;20015;-85
2022/05/20 07:56:11;;;;;;;3.97;3.60;;;27.70;1.00;;;;;;6315852;22;20200;-86
2022/05/20 07:58:41;;;;;;;4.15;3.50;;;27.40;1.00;;;;;;6319798;22;20203;-85
2022/05/20 08:01:09;;;;;;;7.30;4.13;;;27.10;1.00;;;;;;6317303;22;20232;-84
2022/05/20 08:06:31;;;;;;;4.70;4.05;;;26.80;1.00;;;;;;6313375;22;20624;-86
2022/05/20 08:08:58;;;;;;;4.43;4.00;;;27.10;1.00;;;;;;6312264;22;20581;-86
2022/05/20 08:11:31;;;;;;;4.60;4.20;;;27.80;1.00;;;;;;6316505;22;20150;-87
2022/05/20 08:13:58;;;;;;;4.75;4.20;;;28.00;1.00;;;;;;6313770;22;20152;-89
2022/05/20 08:16:25;;;;;;;5.95;4.05;;;27.90;1.00;;;;;;6314366;22;20206;-85
2022/05/20 08:18:53;;;;;;;16.63;5.35;;;27.80;1.00;;;;;;6315742;22;20166;-86
2022/05/20 08:21:20;;;;;;;;;;;28.60;1.00;;;;;;6318965;22;20186;-85
2022/05/20 08:24:05;;;;;;;8.07;3.88;;;29.70;1.00;;;;;;6315200;22;20158;-86
2022/05/20 08:26:42;;;;;;;5.95;4.85;;;30.90;1.00;;;;;;6312248;22;20162;-85
2022/05/20 08:29:12;;;;;;;5.03;3.70;;;31.10;1.00;;;;;;6313899;22;20163;-86
2022/05/20 08:31:43;;;;;;;9.43;3.58;;;31.30;1.00;;;;;;6314033;22;20163;-90
2022/05/20 08:34:18;;;;;;;3.53;3.22;;;32.10;1.00;;;;;;6321590;22;20197;-90
2022/05/20 08:36:45;;;;;;;3.67;3.20;;;33.10;1.00;;;;;;6313457;22;20162;-89
2022/05/20 08:39:14;;;;;;;4.93;4.05;;;34.00;1.00;;;;;;6316312;22;20605;-85
2022/05/20 08:41:54;;;;;;;;;;;34.50;1.00;;;;;;6320332;22;20187;-86
2022/05/20 08:44:25;;;;;;;4.85;4.00;;;34.20;1.00;;;;;;6315660;22;20541;-87
2022/05/20 08:47:09;;;;;;;11.45;4.13;;;33.60;1.00;;;;;;6316748;22;20152;-87
2022/05/20 08:49:38;;;;;;;7.53;5.30;;;32.60;1.00;;;;;;6316515;22;20206;-86
2022/05/20 08:52:06;;;;;;;6.50;5.80;;;31.70;1.00;;;;;;6316274;22;20171;-87
2022/05/20 08:54:34;;;;;;;5.40;4.45;;;30.90;1.00;;;;;;6312937;22;20190;-84
2022/05/20 08:57:17;;;;;;;7.63;5.03;;;31.10;1.00;;;;;;6319072;22;20239;-83
2022/05/20 08:59:44;;;;;;;5.43;4.93;;;32.00;1.00;;;;;;6316012;22;20216;-84
2022/05/20 09:02:11;;;;;;;6.40;4.40;;;32.90;1.00;;;;;;6311898;22;20171;-84
2022/05/20 09:04:38;;;;;;;5.50;5.00;;;33.60;1.00;;;;;;6314113;22;20159;-89
2022/05/20 09:07:08;;;;;;;4.60;4.20;;;33.90;1.00;;;;;;6314845;22;20158;-86
2022/05/20 09:09:51;;;;;;;7.25;4.57;;;33.40;1.00;;;;;;6315341;22;20162;-85
2022/05/20 09:12:36;;;;;;;6.22;4.00;;;33.20;1.00;;;;;;6316407;22;20246;-84
2022/05/20 09:18:01;;;;;;;3.63;3.33;;;34.00;1.00;;;;;;6311354;22;20166;-85
2022/05/20 09:20:31;;;;;;;4.05;3.38;;;33.90;1.00;;;;;;6318891;22;20165;-88
2022/05/20 09:23:02;;;;;;;3.33;3.03;;;33.40;1.00;;;;;;6315241;22;20174;-88
2022/05/20 09:25:36;;;;;;;4.70;3.50;;;33.20;1.00;;;;;;6314896;22;20532;-87
2022/05/20 09:28:23;;;;;;;3.50;3.15;;;33.10;1.00;;;;;;6310326;22;20148;-88
2022/05/20 09:30:54;;;;;;;4.53;3.08;;;32.90;1.00;;;;;;6317355;22;20177;-87
2022/05/20 09:33:24;;;;;;;3.58;2.92;;;32.90;1.00;;;;;;6313649;22;20601;-83
2022/05/20 09:35:59;;;;;;;106.78;74.65;;;32.60;1.00;;;;;;6313502;22;20163;-84
2022/05/20 09:38:35;;;;;;;13.63;3.83;;;32.50;1.00;;;;;;6314146;22;20482;-87
2022/05/20 09:41:13;;;;;;;4.47;3.28;;;32.60;1.00;;;;;;6315896;22;20216;-88
2022/05/20 09:43:43;;;;;;;4.28;2.90;;;32.50;1.00;;;;;;6313956;22;20187;-84
2022/05/20 09:46:29;;;;;;;6.97;3.28;;;32.30;1.00;;;;;;6311325;22;20155;-87
2022/05/20 09:49:02;;;;;;;4.10;2.80;;;32.20;1.00;;;;;;6312641;22;20139;-85
2022/05/20 09:51:38;;;;;;;12.70;3.13;;;32.20;1.00;;;;;;6313675;22;20398;-85
2022/05/20 09:54:21;;;;;;;4.70;3.20;;;31.90;1.00;;;;;;6310645;22;20151;-84
2022/05/20 09:57:04;;;;;;;5.20;3.05;;;31.30;1.00;;;;;;6313896;22;20153;-85
2022/05/20 09:59:44;;;;;;;5.20;3.00;;;30.60;1.00;;;;;;6320447;22;20148;-89
2022/05/20 10:02:20;;;;;;;3.20;3.00;;;30.40;1.00;;;;;;6316346;22;20235;-88
2022/05/20 10:04:57;;;;;;;6.70;3.08;;;30.50;1.00;;;;;;6312465;22;20212;-85
2022/05/20 10:07:58;;;;;;;5.43;3.22;;;30.60;1.00;;;;;;6315951;22;20139;-85
2022/05/20 10:10:33;;;;;;;;;;;30.10;1.00;;;;;;6315981;22;20090;-83
2022/05/20 10:13:04;;;;;;;4.55;3.58;;;29.40;1.00;;;;;;6313265;22;20169;-82
2022/05/20 10:15:40;;;;;;;4.63;3.53;;;29.00;1.00;;;;;;6315571;22;20101;-88
2022/05/20 10:18:14;;;;;;;;;;;28.70;1.00;;;;;;6315059;22;20138;-84
2022/05/20 10:20:52;;;;;;;4.82;3.55;;;28.50;1.00;;;;;;6314223;22;20052;-87
2022/05/20 10:23:33;;;;;;;3.88;3.58;;;28.10;1.00;;;;;;6313000;22;20196;-84
2022/05/20 10:26:06;;;;;;;4.65;3.83;;;27.90;1.00;;;;;;6314568;22;20143;-83
2022/05/20 10:34:18;;;;;;;4.68;3.95;;;27.40;1.00;;;;;;6312411;22;20154;-87
2022/05/20 10:36:55;;;;;;;5.22;3.92;;;27.40;1.00;;;;;;6311473;22;20151;-84
2022/05/20 10:39:55;;;;;;;5.07;3.92;;;27.30;1.00;;;;;;6313756;22;20204;-87
2022/05/20 10:42:37;;;;;;;6.15;3.97;;;27.10;1.00;;;;;;6306136;22;20103;-86
2022/05/20 10:48:38;;;;;;;6.43;4.00;;;26.80;1.00;;;;;;6313284;22;20189;-83
2022/05/20 10:51:30;;;;;;;16.55;11.55;;;26.90;1.00;;;;;;6314829;22;20552;-83
2022/05/20 10:54:07;;;;;;;4.68;3.85;;;27.00;1.00;;;;;;6313827;22;20181;-83
2022/05/20 10:56:53;;;;;;;11.50;4.53;;;26.90;1.00;;;;;;6314145;22;20185;-86
2022/05/20 10:59:42;;;;;;;5.25;4.00;;;26.70;1.00;;;;;;6316596;22;20155;-88
2022/05/20 11:02:30;;;;;;;5.22;3.78;;;26.60;1.00;;;;;;6314284;22;20185;-85
2022/05/20 11:05:29;;;;;;;6.00;3.85;;;26.80;1.00;;;;;;6311730;22;20217;-86
2022/05/20 11:08:17;;;;;;;6.13;4.03;;;27.20;1.00;;;;;;6292270;22;20512;-87
2022/05/20 11:11:08;;;;;;;3.25;2.97;;;27.60;1.00;;;;;;6314126;22;20163;-86
2022/05/20 11:14:10;;;;;;;6.03;3.00;;;28.00;1.00;;;;;;6311466;22;20154;-84
2022/05/20 11:17:04;;;;;;;5.53;3.30;;;28.40;1.00;;;;;;6312276;22;20716;-88
2022/05/20 11:20:04;;;;;;;4.22;2.90;;;28.70;1.00;;;;;;6304203;22;20167;-88
2022/05/20 11:23:11;;;;;;;4.32;3.03;;;28.80;1.00;;;;;;6312972;22;20178;-85
2022/05/20 11:26:14;;;;;;;3.20;2.90;;;28.90;1.00;;;;;;6312369;22;20605;-84
2022/05/20 11:29:23;;;;;;;3.88;3.13;;;29.10;1.00;;;;;;6315482;22;20190;-84
2022/05/20 11:31:55;;;;;;;3.33;3.00;;;29.20;1.00;;;;;;6186157;23;20184;-85
2022/05/20 11:35:01;;;;;;;4.53;2.78;;;29.20;1.00;;;;;;6189988;23;20228;-88
2022/05/20 11:38:10;;;;;;;6.03;3.15;;;29.10;1.00;;;;;;6280085;22;20670;-88
2022/05/20 11:41:04;;;;;;;4.97;3.35;;;29.00;1.00;;;;;;6282994;22;20159;-91
2022/05/20 11:43:56;;;;;;;3.70;3.10;;;29.10;1.00;;;;;;6315157;22;20368;-85
2022/05/20 11:46:39;;;;;;;4.25;3.17;;;29.20;1.00;;;;;;6309602;22;20169;-86
2022/05/20 11:49:52;;;;;;;3.55;3.15;;;29.00;1.00;;;;;;6314451;22;20150;-83
2022/05/20 11:52:47;;;;;;;3.85;3.45;;;28.70;1.00;;;;;;6240891;22;20167;-85
2022/05/20 11:55:19;;;;;;;3.97;3.55;;;28.60;1.00;;;;;;6311348;22;20151;-83
2022/05/20 11:57:55;;;;;;;6.07;2.97;;;28.70;1.00;;;;;;6320213;22;20144;-83
2022/05/20 12:00:22;;;;;;;4.28;3.30;;;28.70;1.00;;;;;;6317857;22;20154;-84
2022/05/20 12:02:58;;;;;;;3.38;3.08;;;28.80;1.00;;;;;;6310736;22;20183;-89
2022/05/20 12:05:29;;;;;;;4.80;3.35;;;28.80;1.00;;;;;;6313143;22;20179;-85
2022/05/20 12:07:58;;;;;;;3.78;3.47;;;28.90;1.00;;;;;;6311042;22;20155;-84
2022/05/20 12:10:52;;;;;;;5.75;3.15;;;28.70;1.00;;;;;;6319512;22;20170;-87
2022/05/20 12:13:22;;;;;;;5.13;3.15;;;28.70;1.00;;;;;;6310655;22;20230;-86
2022/05/20 12:16:12;;;;;;;3.95;3.55;;;28.60;1.00;;;;;;6311288;22;20236;-84
2022/05/20 12:24:40;;;;;;;5.82;3.00;;;28.20;1.00;;;;;;6318708;22;20205;-83
2022/05/20 12:27:46;;;;;;;4.93;3.40;;;28.20;1.00;;;;;;6308916;22;20658;-83
2022/05/20 12:30:39;;;;;;;4.38;3.25;;;28.10;1.00;;;;;;6310863;22;20203;-85
2022/05/20 12:33:22;;;;;;;4.07;2.90;;;28.10;1.00;;;;;;6304080;22;20212;-88
2022/05/20 12:36:20;;;;;;;4.75;2.53;;;28.30;1.00;;;;;;6310835;22;20208;-87
2022/05/20 12:38:52;;;;;;;5.40;3.08;;;28.50;1.00;;;;;;6314922;22;20155;-83
2022/05/20 12:41:39;;;;;;;4.63;3.13;;;28.50;1.00;;;;;;6313660;22;20186;-85
2022/05/20 12:44:31;;;;;;;4.25;2.70;;;28.50;1.00;;;;;;6314890;22;20158;-87
2022/05/20 12:47:06;;;;;;;3.45;3.08;;;28.50;1.00;;;;;;6318854;22;20205;-85
2022/05/20 12:49:46;;;;;;;4.10;2.45;;;28.50;1.00;;;;;;6316224;22;20153;-86
2022/05/20 12:52:36;;;;;;;3.05;2.58;;;28.40;1.00;;;;;;6316635;22;20166;-84
2022/05/20 12:55:15;;;;;;;2.97;2.50;;;28.30;1.00;;;;;;6319070;22;20508;-84
2022/05/20 12:57:54;;;;;;;3.65;2.85;;;28.30;1.00;;;;;;6315283;22;20233;-84
2022/05/20 13:00:28;;;;;;;3.35;2.80;;;28.20;1.00;;;;;;6316040;22;20147;-86
2022/05/20 13:03:08;;;;;;;3.25;2.75;;;28.30;1.00;;;;;;6320302;22;20179;-87
2022/05/20 13:05:47;;;;;;;3.70;2.70;;;28.30;1.00;;;;;;6316288;22;20183;-84
2022/05/20 13:08:17;;;;;;;3.30;2.42;;;28.30;1.00;;;;;;6317245;22;20453;-82
2022/05/20 13:10:48;;;;;;;5.03;2.42;;;28.30;1.00;;;;;;6314547;22;20171;-87
2022/05/20 13:13:22;;;;;;;6.22;2.63;;;28.30;1.00;;;;;;6317799;22;20167;-87
2022/05/20 13:15:54;;;;;;;5.22;2.50;;;28.30;1.00;;;;;;6318652;22;20183;-88
2022/05/20 13:18:38;;;;;;;3.22;2.50;;;28.30;1.00;;;;;;6314941;22;20131;-83
2022/05/20 13:21:16;;;;;;;;;;;28.30;1.00;;;;;;6313769;22;20234;-85
2022/05/20 13:23:47;;;;;;;;;;;28.30;1.00;;;;;;6318989;22;20382;-86
2022/05/20 13:26:23;;;;;;;;;;;28.30;1.00;;;;;;6321038;22;20380;-86
2022/05/20 13:28:59;;;;;;;;;;;28.30;1.00;;;;;;6317083;22;19915;-89
2022/05/20 13:31:27;;;;;;;;;;;28.30;1.00;;;;;;6324258;22;20253;-88
2022/05/20 13:33:54;;;;;;;;;;;28.30;1.00;;;;;;6317271;22;19950;-85
2022/05/20 13:36:22;;;;;;;;;;;28.30;1.00;;;;;;6314645;22;19964;-85
2022/05/20 13:38:56;;;;;;;;;;;28.50;1.00;;;;;;6316850;22;19905;-85
2022/05/20 13:41:25;;;;;;;;;;;28.50;1.00;;;;;;6316613;22;19911;-86
2022/05/20 13:43:58;;;;;;;;;;;28.50;1.00;;;;;;6319618;22;19911;-85
2022/05/20 13:49:15;;;;;;;;;;;28.50;1.00;;;;;;6314544;22;19933;-84
2022/05/20 13:51:45;;;;;;;;;;;28.50;1.00;;;;;;6309936;22;19964;-87
2022/05/20 13:54:19;;;;;;;;;;;28.50;1.00;;;;;;6320082;22;19911;-86
2022/05/20 13:56:50;;;;;;;;;;;28.40;1.00;;;;;;6318469;22;19993;-89
2022/05/20 13:59:32;;;;;;;;;;;28.50;1.00;;;;;;6314909;22;19933;-84
2022/05/20 14:02:04;;;;;;;;;;;28.50;1.00;;;;;;6313753;22;20332;-84
2022/05/20 14:04:41;;;;;;;;;;;28.50;1.00;;;;;;6318365;22;19911;-88
2022/05/20 14:07:10;;;;;;;;;;;28.50;1.00;;;;;;6317968;22;19988;-87
2022/05/20 14:09:40;;;;;;;;;;;28.40;1.00;;;;;;6318329;22;19911;-82
2022/05/20 14:12:11;;;;;;;;;;;28.30;1.00;;;;;;6312596;22;19918;-85
2022/05/20 14:14:52;;;;;;;;;;;28.30;1.00;;;;;;6313619;22;19911;-86
2022/05/20 14:17:20;;;;;;;;;;;28.30;1.00;;;;;;6314352;22;19911;-83
2022/05/20 14:19:48;;;;;;;;;;;28.30;1.00;;;;;;6314935;22;19911;-83
2022/05/20 14:22:18;;;;;;;;;;;28.20;1.00;;;;;;6315000;22;19964;-86
2022/05/20 14:24:49;;;;;;;;;;;28.10;1.00;;;;;;6320077;22;19972;-85
2022/05/20 14:27:28;;;;;;;;;;;28.00;1.00;;;;;;6314933;22;19918;-82
2022/05/20 14:30:14;;;;;;;;;;;27.90;1.00;;;;;;6316473;22;19945;-86
2022/05/20 14:32:51;;;;;;;;;;;27.80;1.00;;;;;;6313661;22;20338;-86
2022/05/20 14:35:19;;;;;;;;;;;27.70;1.00;;;;;;6318762;22;19911;-83
2022/05/20 14:37:58;;;;;;;;;;;27.70;1.00;;;;;;6313348;22;19910;-87
2022/05/20 14:40:27;;;;;;;;;;;27.60;1.00;;;;;;6316582;22;19961;-85
2022/05/20 14:43:03;;;;;;;;;;;27.60;1.00;;;;;;6317877;22;20268;-87
2022/05/20 14:45:33;;;;;;;;;;;27.50;1.00;;;;;;6318166;22;19964;-85
2022/05/20 14:48:15;;;;;;;;;;;27.50;1.00;;;;;;6311927;22;19911;-89
2022/05/20 14:50:45;;;;;;;2.97;2.55;;;27.40;1.00;;;;;;6310481;22;20017;-84
2022/05/20 14:53:34;;;;;;;2.80;2.42;;;27.20;1.00;;;;;;6310369;22;20212;-83
2022/05/20 14:56:02;;;;;;;5.15;2.55;;;27.10;1.00;;;;;;6310105;22;20151;-87
2022/05/20 14:58:31;;;;;;;5.60;2.70;;;27.20;1.00;;;;;;6311965;22;20631;-82
2022/05/20 15:01:14;;;;;;;8.95;2.65;;;27.20;1.00;;;;;;6319502;22;20151;-89
2022/05/20 15:03:45;;;;;;;4.18;2.50;;;27.10;1.00;;;;;;6310836;22;20951;-82
2022/05/20 15:06:17;;;;;;;2.97;2.20;;;27.10;1.00;;;;;;6306654;22;20246;-81
2022/05/20 15:08:44;;;;;;;;;;;27.10;1.00;;;;;;6306575;22;20658;-81
2022/05/20 15:11:13;;;;;;;;;;;27.10;1.00;;;;;;6306609;22;20222;-81
2022/05/20 15:13:41;;;;;;;3.83;3.00;;;27.10;1.00;;;;;;6306751;22;19911;-82
2022/05/20 15:16:08;;;;;;;8.45;2.92;;;27.10;1.00;;;;;;6306482;22;20255;-85
2022/05/20 15:18:36;;;;;;;2.92;2.58;;;27.10;1.00;;;;;;6304351;22;20204;-82
2022/05/20 15:21:07;;;;;;;4.43;2.75;;;27.20;1.00;;;;;;6305981;22;20166;-82
2022/05/20 15:23:38;;;;;;;4.90;2.65;;;27.20;1.00;;;;;;6307005;22;20171;-84
2022/05/20 15:26:08;;;;;;;6.40;2.75;;;27.10;1.00;;;;;;6304554;22;20470;-83
2022/05/20 15:28:51;;;;;;;3.10;2.80;;;27.10;1.00;;;;;;6305526;22;20197;-82
2022/05/20 15:36:58;;;;;;;6.53;2.70;;;26.90;1.00;;;;;;6306217;22;20146;-84
2022/05/20 15:39:29;;;;;;;2.92;2.50;;;26.90;1.00;;;;;;6306097;22;20155;-83
2022/05/20 15:41:56;;;;;;;8.95;3.00;;;26.90;1.00;;;;;;6307902;22;20155;-83
2022/05/20 15:44:24;;;;;;;12.55;3.63;;;26.80;1.00;;;;;;6309997;22;20170;-84
2022/05/20 15:46:51;;;;;;;5.68;2.78;;;26.80;1.00;;;;;;6309883;22;20165;-84
2022/05/20 15:49:18;;;;;;;4.30;2.63;;;26.70;1.00;;;;;;6310140;22;20159;-83
2022/05/20 15:51:45;;;;;;;6.70;3.22;;;26.70;1.00;;;;;;6309224;22;20666;-85
2022/05/20 15:54:13;;;;;;;;;;;26.70;1.00;;;;;;6307034;22;20171;-82
2022/05/20 15:56:43;;;;;;;7.78;2.92;;;26.60;1.00;;;;;;6310456;22;20499;-88
2022/05/20 15:59:10;;;;;;;7.88;2.90;;;26.60;1.00;;;;;;6309995;22;20171;-87
2022/05/20 16:01:40;;;;;;;3.88;2.70;;;26.50;1.00;;;;;;6308462;22;20185;-86
2022/05/20 16:04:08;;;;;;;2.80;2.50;;;26.50;1.00;;;;;;6309000;22;20237;-82
2022/05/20 16:06:39;;;;;;;13.02;3.33;;;26.50;1.00;;;;;;6315209;22;20528;-83
2022/05/20 16:09:09;;;;;;;5.90;3.38;;;26.40;1.00;;;;;;6312895;22;20158;-83
2022/05/20 16:11:42;;;;;;;2.90;2.60;;;26.50;1.00;;;;;;6311197;22;20186;-81
2022/05/20 16:14:09;;;;;;;3.85;2.92;;;26.50;1.00;;;;;;6313956;22;20643;-81
2022/05/20 16:16:36;;;;;;;8.23;3.80;;;26.50;1.00;;;;;;6313190;22;20175;-82
2022/05/20 16:19:05;;;;;;;7.03;2.65;;;26.60;1.00;;;;;;6317475;22;20454;-88
2022/05/20 16:21:47;;;;;;;;;;;;;;;;;;;;;
2022/05/20 16:24:22;;;;;;;19.50;4.53;;;26.70;1.00;;;;;;6321316;22;20233;-88
2022/05/20 16:26:51;;;;;;;4.60;2.90;;;26.60;1.00;;;;;;6317336;22;20164;-85
2022/05/20 16:29:18;;;;;;;8.30;3.60;;;26.60;1.00;;;;;;6314008;22;20163;-84
2022/05/20 16:31:47;;;;;;;136.20;11.60;;;26.50;1.00;;;;;;6311892;22;20613;-84
2022/05/20 16:34:20;;;;;;;15.85;3.55;;;26.50;1.00;;;;;;6313955;22;20668;-88
2022/05/20 16:36:48;;;;;;;4.45;2.80;;;26.40;1.00;;;;;;6310213;22;20152;-85
2022/05/20 16:39:15;;;;;;;2.72;2.53;;;26.30;1.00;;;;;;6315677;22;20196;-85
2022/05/20 16:41:42;;;;;;;8.85;2.80;;;26.30;1.00;;;;;;6313782;22;20224;-89
2022/05/20 16:44:21;;;;;;;10.13;3.10;;;26.30;1.00;;;;;;6316335;22;20189;-85
2022/05/20 16:46:55;;;;;;;10.50;3.60;;;26.30;1.00;;;;;;6312241;22;20146;-88
2022/05/20 16:49:25;;;;;;;13.07;4.40;;;26.30;1.00;;;;;;6311632;22;20147;-84
2022/05/20 16:52:05;;;;;;;21.50;6.53;;;26.30;1.00;;;;;;6314053;22;20165;-86
2022/05/20 16:54:45;;;;;;;5.40;3.25;;;26.20;1.00;;;;;;6312838;22;20155;-87
2022/05/20 17:03:03;;;;;;;4.68;3.15;;;26.00;1.00;;;;;;6314968;22;20190;-87
2022/05/20 17:05:30;;;;;;;2.75;2.47;;;25.90;1.00;;;;;;6312354;22;20212;-89
2022/05/20 17:07:57;;;;;;;3.20;2.60;;;25.70;1.00;;;;;;6316400;22;20167;-88
2022/05/20 17:10:26;;;;;;;6.18;2.97;;;25.50;1.00;;;;;;6314094;22;20191;-85